Lynn, Massachusetts
Current Conditions -  °F | °C
As of 5:54 AM on Saturday 20 Dec 2014 (Local Time) from KBOS Reporting Station
Clear Clear  
Wind Chill: 19°   Ceiling: Unl
Heat Index: 28°   Visibility: 10mi
Dew Point: 21°   Wind: 9mph
Humidity: 75%   Direction: 360°N
Pressure: 30.23"   Gusts: NA
Location:  42.46°N, 70.95°W
Report Text: KBOS 201054Z 36008KT 10SM CLR M02/M06 A3023 RMK AO2 SLP235 T10221061
Loading
Personal Weather Stations






























Interactive Weather Map New forecast layout! Learn more

10-Day Weather Forecast

Advertisements
Track Severe Weather on mobile